Flight Track Log - Related Links

Times and Time Zones

All times are in EDT time to prevent confusion due to time zone crossing. See the ASQ4209 flight status page for this flight to view local times or setup timezone preferences in your user account.

Time Position Orientation Groundspeed Altitude Reporting Facility
EDT Latitude Longitude Course Direction KTS MPH feet Rate Location/Type
Sat 03:18:40 PM 29.9617 -95.3436 90° East 169 194 700  Level Houston Center
Sat 03:19:29 PM 29.9331 -95.3061 131° Southeast 200 230 2,200 1,787 Climbing Houston Center
Sat 03:20:14 PM 29.9019 -95.2656 132° Southeast 237 273 3,500 1,907 Climbing Houston Center
Sat 03:21:16 PM 29.8539 -95.2008 131° Southeast 259 298 5,600 2,244 Climbing Houston Center
Sat 03:22:17 PM 29.8211 -95.1233 116° Southeast 274 315 8,100 2,537 Climbing Houston Center
Sat 03:23:19 PM 29.8108 -95.0358 98° East 276 318 10,800 2,081 Climbing Houston Center
Sat 03:24:00 PM 29.9834 -94.7343 90° East  Level FlightAware Approximate
Sat 03:24:21 PM 29.8194 -94.9436 84° East 285 328 12,400  Level Houston Center
Sat 03:25:23 PM 29.8492 -94.8331 73° East 313 360 15,100 1,742 Climbing Houston Center
Sat 03:26:25 PM 29.8728 -94.7369 74° East 322 371 16,000 390 Climbing Houston Center
Sat 03:27:26 PM 29.8644 -94.6350 95° East 322 371 15,900  Descending Houston Center
Sat 03:28:28 PM 29.8906 -94.5414 72° East 319 367 16,000 97 Climbing Houston Center
Sat 03:29:30 PM 29.9344 -94.4428 63° Northeast 322 371 16,100 484 Climbing Houston Center
Sat 03:30:32 PM 29.9550 -94.3319 78° East 354 407 17,000 927 Climbing Houston Center
Sat 03:31:33 PM 29.9731 -94.2142 80° East 370 426 18,000 976 Climbing Houston Center
Sat 03:32:35 PM 29.9917 -94.0936 80° East 379 436 19,000 919 Climbing Houston Center
Sat 03:33:37 PM 30.0111 -93.9728 79° East 384 442 19,900 919 Climbing Houston Center
Sat 03:34:39 PM 30.0292 -93.8478 80° East 394 453 20,900 537 Climbing Houston Center
Sat 03:35:40 PM 30.0536 -93.6889 80° East 412 474 21,000 49 Climbing Houston Center
Sat 03:36:42 PM 30.0736 -93.5561 80° East 432 497 21,000  Level Houston Center
Sat 03:37:44 PM 30.0939 -93.4200 80° East 437 503 21,000  Level Houston Center
Sat 03:38:45 PM 30.1133 -93.2842 81° East 436 502 21,000  Level Houston Center
Sat 03:39:47 PM 30.1342 -93.1481 80° East 435 501 21,000 -48 Level Houston Center
Sat 03:40:49 PM 30.1628 -92.9858 78° East 435 501 20,900  Descending Houston Center
Sat 03:41:51 PM 30.1947 -92.8522 75° East 434 499 21,000 49 Climbing Houston Center
Sat 03:42:52 PM 30.2228 -92.7167 76° East 436 502 21,000  Level Houston Center
Sat 03:43:54 PM 30.2497 -92.5817 77° East 434 499 21,000  Level Houston Center
Sat 03:44:56 PM 30.2783 -92.4450 76° East 437 503 21,000 -49 Level Houston Center
Sat 03:45:57 PM 30.3058 -92.3008 78° East 433 498 20,900 -1,366 Descending Houston Center
Sat 03:46:59 PM 30.3325 -92.1719 76° East 420 483 18,200 -2,758 Descending Houston Center
Sat 03:48:01 PM 30.3569 -92.0497 77° East 400 460 15,200 -3,097 Descending Houston Center
Sat 03:49:03 PM 30.3856 -91.9075 77° East 384 442 11,800 -2,049 Descending Houston Center
Sat 03:50:04 PM 30.4083 -91.7950 77° East 368 423 11,000 -390 Descending Houston Center
Sat 03:51:06 PM 30.4281 -91.6889 78° East 362 417 11,000 -145 Level Houston Center
Sat 03:52:08 PM 30.4506 -91.5803 76° East 351 404 10,700 -1,317 Descending Houston Center
Sat 03:53:09 PM 30.4564 -91.4944 85° East 281 323 8,300 -2,829 Descending Houston Center
Sat 03:54:11 PM 30.4669 -91.3911 83° East 270 311 4,900 -3,290 Descending Houston Center

Login

Don't have an account? Register now (free) for customized features, flight alerts, and more!